createdAt,value
2022-07-29T00:00:00.248Z,68.95
2022-07-29T00:02:28.215Z,69.14
2022-07-29T00:04:55.650Z,69.31
2022-07-29T00:07:22.750Z,68.40
2022-07-29T00:09:51.902Z,68.44
2022-07-29T00:12:26.069Z,68.22
2022-07-29T00:14:57.995Z,68.27
2022-07-29T00:17:25.658Z,68.44
2022-07-29T00:19:53.196Z,68.76
2022-07-29T00:22:21.043Z,68.38
2022-07-29T00:24:50.278Z,68.91
2022-07-29T00:27:18.420Z,67.89
2022-07-29T00:29:45.737Z,68.40
2022-07-29T00:32:13.036Z,69.22
2022-07-29T00:34:58.736Z,68.52
2022-07-29T00:37:26.184Z,67.75
2022-07-29T00:39:53.475Z,66.92
2022-07-29T00:42:21.021Z,66.80
2022-07-29T00:44:48.412Z,68.41
2022-07-29T00:47:15.573Z,68.66
2022-07-29T00:49:43.531Z,68.85
2022-07-29T00:52:11.968Z,67.90
2022-07-29T00:54:44.014Z,67.97
2022-07-29T00:57:12.866Z,68.44
2022-07-29T00:59:40.542Z,67.58
2022-07-29T01:02:07.750Z,67.57
2022-07-29T01:04:36.058Z,68.46
2022-07-29T01:07:04.334Z,67.68
2022-07-29T01:09:42.106Z,67.98
2022-07-29T01:12:17.860Z,67.85
2022-07-29T01:14:46.698Z,68.65
2022-07-29T01:17:53.257Z,67.41
2022-07-29T01:20:48.343Z,67.42
2022-07-29T01:23:33.780Z,66.73
2022-07-29T01:26:37.486Z,66.17
2022-07-29T01:29:38.749Z,66.59
2022-07-29T01:32:29.007Z,66.58
2022-07-29T01:35:24.075Z,66.81
2022-07-29T01:38:06.499Z,66.33
2022-07-29T01:40:49.113Z,66.22
2022-07-29T01:43:21.281Z,65.60
2022-07-29T01:45:54.362Z,65.55
2022-07-29T01:48:25.418Z,66.49
2022-07-29T01:51:21.432Z,66.39
2022-07-29T01:53:51.424Z,65.91
2022-07-29T01:56:21.168Z,65.98
2022-07-29T01:58:50.410Z,66.08
2022-07-29T02:01:19.394Z,65.89
2022-07-29T02:03:48.555Z,66.34
2022-07-29T02:06:20.196Z,66.54
2022-07-29T02:08:48.933Z,66.59
2022-07-29T02:11:16.357Z,66.72
2022-07-29T02:13:45.420Z,66.47
2022-07-29T02:16:13.607Z,66.01
2022-07-29T02:18:44.820Z,65.15
2022-07-29T02:21:14.924Z,62.65
2022-07-29T02:23:51.128Z,59.73
2022-07-29T02:26:21.555Z,58.88
2022-07-29T02:28:51.144Z,57.68
2022-07-29T02:31:21.997Z,57.16
2022-07-29T02:33:51.004Z,55.65
2022-07-29T02:36:19.244Z,56.39
2022-07-29T02:38:53.664Z,55.69
2022-07-29T02:41:48.628Z,57.17
2022-07-29T02:44:25.282Z,59.86
2022-07-29T02:47:27.313Z,61.45
2022-07-29T02:50:10.320Z,62.82
2022-07-29T02:52:43.432Z,63.42
2022-07-29T02:55:26.381Z,62.88
2022-07-29T02:58:09.579Z,62.33
2022-07-29T03:00:40.261Z,63.83
2022-07-29T03:03:12.352Z,62.05
2022-07-29T03:05:41.015Z,61.32
2022-07-29T03:08:11.600Z,62.87
2022-07-29T03:10:41.403Z,64.32
2022-07-29T03:13:10.438Z,62.34
2022-07-29T03:15:38.657Z,62.96
2022-07-29T03:18:07.538Z,62.32
2022-07-29T03:20:34.810Z,60.64
2022-07-29T03:23:01.978Z,59.43
2022-07-29T03:25:29.149Z,59.59
2022-07-29T03:27:56.440Z,60.28
2022-07-29T03:30:24.179Z,60.65
2022-07-29T03:32:52.527Z,57.28
2022-07-29T03:35:20.991Z,56.94
2022-07-29T03:37:48.449Z,60.06
2022-07-29T03:40:22.596Z,61.92
2022-07-29T03:42:52.613Z,63.48
2022-07-29T03:45:20.761Z,63.59
2022-07-29T03:47:54.732Z,64.07
2022-07-29T03:50:24.580Z,63.55
2022-07-29T03:52:52.185Z,63.26
2022-07-29T03:55:19.361Z,63.93
2022-07-29T03:57:48.406Z,63.61
2022-07-29T04:00:19.082Z,63.38
2022-07-29T04:02:49.622Z,63.04
2022-07-29T04:05:17.648Z,62.22
2022-07-29T04:07:46.186Z,62.67
2022-07-29T04:10:13.340Z,61.78
2022-07-29T04:12:40.451Z,61.96
2022-07-29T04:15:08.270Z,60.44
2022-07-29T04:17:35.499Z,61.99
2022-07-29T04:20:02.708Z,61.79
2022-07-29T04:22:31.122Z,61.56
2022-07-29T04:25:03.354Z,60.72
2022-07-29T04:27:31.266Z,60.54
2022-07-29T04:29:58.438Z,60.87
2022-07-29T04:32:26.598Z,61.78
2022-07-29T04:34:53.938Z,62.32
2022-07-29T04:37:21.038Z,61.42
2022-07-29T04:39:48.067Z,60.66
2022-07-29T04:42:15.399Z,59.42
2022-07-29T04:44:44.435Z,60.15
2022-07-29T04:47:12.771Z,60.53
2022-07-29T04:49:40.103Z,61.62
2022-07-29T04:52:07.981Z,61.28
2022-07-29T04:54:35.445Z,60.38
2022-07-29T04:57:02.505Z,60.50
2022-07-29T04:59:29.581Z,60.79
2022-07-29T05:01:56.659Z,60.58
2022-07-29T05:04:24.106Z,59.46
2022-07-29T05:06:51.193Z,58.36
2022-07-29T05:09:18.293Z,57.71
2022-07-29T05:11:45.555Z,57.60
2022-07-29T05:14:12.851Z,56.88
2022-07-29T05:16:43.122Z,58.46
2022-07-29T05:19:14.140Z,57.80
2022-07-29T05:21:41.888Z,56.77
2022-07-29T05:24:09.280Z,56.26
2022-07-29T05:26:36.398Z,56.12
2022-07-29T05:29:03.787Z,56.26
2022-07-29T05:31:30.902Z,57.65
2022-07-29T05:33:58.180Z,57.87
2022-07-29T05:36:25.253Z,58.76
2022-07-29T05:38:53.189Z,58.08
2022-07-29T05:41:21.276Z,55.38
2022-07-29T05:43:48.302Z,55.57
2022-07-29T05:46:15.515Z,56.52
2022-07-29T05:48:42.702Z,55.99
2022-07-29T05:51:09.879Z,55.76
2022-07-29T05:53:36.987Z,56.69
2022-07-29T05:56:06.067Z,56.79
2022-07-29T05:58:33.232Z,56.99
2022-07-29T06:01:01.751Z,56.88
2022-07-29T06:03:29.540Z,57.01
2022-07-29T06:05:56.600Z,57.12
2022-07-29T06:08:23.735Z,55.26
2022-07-29T06:10:50.844Z,55.70
2022-07-29T06:13:17.986Z,55.62
2022-07-29T06:15:45.531Z,55.56
2022-07-29T06:18:14.412Z,55.09
2022-07-29T06:20:41.968Z,55.46
2022-07-29T06:23:09.282Z,54.70
2022-07-29T06:25:37.743Z,55.27
2022-07-29T06:28:05.297Z,54.59
2022-07-29T06:30:32.478Z,55.13
2022-07-29T06:32:59.673Z,53.81
2022-07-29T06:35:39.647Z,54.04
2022-07-29T06:38:29.963Z,55.07
2022-07-29T06:41:23.049Z,55.03
2022-07-29T06:43:55.258Z,53.96
2022-07-29T06:46:24.408Z,56.32
2022-07-29T06:48:53.233Z,57.06
2022-07-29T06:51:22.632Z,55.79
2022-07-29T06:53:59.397Z,52.76
2022-07-29T06:56:38.559Z,54.33
2022-07-29T06:59:11.805Z,52.92
2022-07-29T07:01:41.125Z,53.50
2022-07-29T07:04:12.422Z,54.02
2022-07-29T07:06:40.416Z,54.02
2022-07-29T07:09:07.771Z,52.67
2022-07-29T07:11:35.226Z,53.94
2022-07-29T07:14:14.826Z,50.53
2022-07-29T07:16:44.494Z,51.00
2022-07-29T07:19:11.718Z,50.36
2022-07-29T07:21:41.630Z,50.06
2022-07-29T07:24:08.941Z,48.84
2022-07-29T07:26:36.133Z,50.70
2022-07-29T07:29:03.738Z,50.74
2022-07-29T07:31:32.018Z,51.72
2022-07-29T07:33:59.378Z,50.16
2022-07-29T07:36:26.544Z,48.76
2022-07-29T07:38:53.758Z,49.20
2022-07-29T07:41:21.169Z,48.37
2022-07-29T07:43:48.387Z,46.76
2022-07-29T07:46:16.191Z,47.06
2022-07-29T07:48:43.577Z,47.25
2022-07-29T07:51:11.857Z,47.15
2022-07-29T07:53:39.050Z,47.79
2022-07-29T07:56:11.019Z,49.48
2022-07-29T07:58:40.097Z,47.41
2022-07-29T08:01:08.463Z,47.88
2022-07-29T08:03:35.720Z,48.61
2022-07-29T08:06:03.971Z,48.72
2022-07-29T08:08:31.293Z,47.30
2022-07-29T08:10:58.703Z,46.69
2022-07-29T08:13:31.615Z,46.90
2022-07-29T08:16:01.402Z,46.20
2022-07-29T08:18:31.129Z,44.73
2022-07-29T08:20:59.309Z,44.06
2022-07-29T08:23:32.892Z,43.03
2022-07-29T08:26:15.157Z,44.77
2022-07-29T08:28:47.266Z,45.74
2022-07-29T08:31:15.155Z,44.91
2022-07-29T08:33:45.827Z,43.91
2022-07-29T08:36:14.290Z,43.22
2022-07-29T08:38:41.551Z,44.60
2022-07-29T08:41:08.805Z,44.39
2022-07-29T08:43:38.587Z,43.69
2022-07-29T08:46:06.980Z,43.71
2022-07-29T08:48:37.650Z,43.91
2022-07-29T08:51:06.469Z,43.68
2022-07-29T08:53:34.700Z,43.72
2022-07-29T08:56:03.109Z,43.96
2022-07-29T08:58:36.528Z,44.09
2022-07-29T09:01:05.076Z,43.83
2022-07-29T09:03:37.165Z,43.60
2022-07-29T09:06:05.812Z,43.53
2022-07-29T09:08:34.732Z,42.14
2022-07-29T09:11:04.028Z,42.38
2022-07-29T09:13:32.562Z,43.08
2022-07-29T09:15:59.957Z,43.38
2022-07-29T09:18:36.776Z,41.89
2022-07-29T09:21:24.459Z,43.32
2022-07-29T09:24:13.985Z,43.07
2022-07-29T09:26:43.734Z,43.09
2022-07-29T09:29:13.106Z,42.47
2022-07-29T09:31:43.764Z,42.54
2022-07-29T09:34:15.129Z,45.13
2022-07-29T09:36:47.295Z,43.66
2022-07-29T09:39:17.835Z,43.81
2022-07-29T09:41:51.373Z,42.83
2022-07-29T09:44:19.432Z,42.23
2022-07-29T09:47:08.293Z,42.71
2022-07-29T09:49:59.420Z,44.30
2022-07-29T09:52:28.206Z,42.86
2022-07-29T09:55:08.482Z,41.64
2022-07-29T09:57:35.663Z,42.30
2022-07-29T10:00:09.863Z,43.25
2022-07-29T10:02:44.978Z,41.85
2022-07-29T10:05:38.560Z,43.57
2022-07-29T10:08:06.278Z,45.88
2022-07-29T10:10:36.730Z,45.58
2022-07-29T10:13:16.507Z,44.50
2022-07-29T10:15:46.934Z,44.40
2022-07-29T10:18:15.035Z,42.82
2022-07-29T10:20:42.882Z,42.77
2022-07-29T10:23:10.661Z,43.23
2022-07-29T10:25:38.120Z,43.27
2022-07-29T10:28:07.058Z,44.58
2022-07-29T10:30:34.670Z,43.44
2022-07-29T10:33:26.493Z,43.36
2022-07-29T10:36:05.331Z,43.55
2022-07-29T10:39:00.049Z,42.94
2022-07-29T10:41:55.196Z,43.67
2022-07-29T10:44:25.152Z,43.07
2022-07-29T10:46:53.472Z,42.82
2022-07-29T10:49:25.287Z,43.16
2022-07-29T10:51:52.617Z,44.65
2022-07-29T10:54:42.303Z,43.18
2022-07-29T10:57:54.099Z,43.25
2022-07-29T11:00:17.012Z,43.01
2022-07-29T11:03:04.742Z,45.68
2022-07-29T11:05:55.370Z,41.86
2022-07-29T11:08:27.830Z,41.04
2022-07-29T11:11:23.287Z,40.15
2022-07-29T11:13:57.707Z,40.99
2022-07-29T11:16:26.811Z,39.26
2022-07-29T11:19:13.360Z,39.78
2022-07-29T11:21:54.996Z,39.75
2022-07-29T11:24:32.269Z,41.82
2022-07-29T11:27:22.046Z,40.12
2022-07-29T11:29:55.531Z,37.39
2022-07-29T11:32:25.609Z,38.64
2022-07-29T11:35:17.221Z,37.94
2022-07-29T11:37:55.426Z,37.92
2022-07-29T11:40:25.210Z,38.40
2022-07-29T11:42:52.890Z,38.99
2022-07-29T11:45:43.922Z,38.63
2022-07-29T11:48:29.387Z,38.12
2022-07-29T11:50:59.906Z,42.09
2022-07-29T11:53:29.049Z,38.88
2022-07-29T11:56:00.747Z,40.65
2022-07-29T11:58:29.507Z,39.47
2022-07-29T12:00:57.872Z,40.26
2022-07-29T12:03:33.562Z,41.25
2022-07-29T12:06:03.764Z,39.25
2022-07-29T12:08:31.335Z,40.03
2022-07-29T12:10:58.434Z,39.02
2022-07-29T12:13:37.607Z,39.38
2022-07-29T12:16:05.796Z,39.91
2022-07-29T12:18:33.278Z,39.37
2022-07-29T12:21:04.916Z,40.48
2022-07-29T12:23:34.915Z,39.71
2022-07-29T12:26:07.622Z,39.72
2022-07-29T12:28:39.722Z,39.40
2022-07-29T12:31:13.998Z,40.31
2022-07-29T12:33:41.310Z,39.68
2022-07-29T12:36:14.170Z,40.61
2022-07-29T12:38:45.595Z,40.04
2022-07-29T12:41:13.811Z,41.02
2022-07-29T12:43:53.969Z,40.35
2022-07-29T12:46:21.209Z,40.23
2022-07-29T12:48:55.741Z,40.75
2022-07-29T12:51:32.813Z,40.10
2022-07-29T12:54:08.629Z,41.74
2022-07-29T12:56:44.488Z,42.11
2022-07-29T12:59:32.560Z,40.30
2022-07-29T13:02:01.066Z,40.67
2022-07-29T13:04:30.799Z,40.63
2022-07-29T13:07:09.172Z,40.10
2022-07-29T13:09:43.458Z,40.56
2022-07-29T13:12:13.303Z,41.82
2022-07-29T13:14:45.981Z,39.82
2022-07-29T13:17:16.816Z,42.33
2022-07-29T13:19:52.000Z,43.24
2022-07-29T13:22:24.519Z,43.81
2022-07-29T13:24:53.006Z,41.69
2022-07-29T13:27:23.103Z,42.52
2022-07-29T13:29:53.370Z,41.21
2022-07-29T13:32:27.684Z,40.28
2022-07-29T13:35:05.246Z,40.89
2022-07-29T13:37:35.338Z,39.22
2022-07-29T13:40:04.468Z,39.42
2022-07-29T13:42:33.551Z,39.82
2022-07-29T13:45:01.578Z,38.36
2022-07-29T13:47:33.285Z,38.76
2022-07-29T13:50:02.230Z,39.75
2022-07-29T13:52:30.773Z,40.35
2022-07-29T13:54:57.997Z,41.38
2022-07-29T13:57:25.223Z,39.25
2022-07-29T13:59:54.375Z,39.77
2022-07-29T14:02:25.869Z,40.10
2022-07-29T14:04:55.035Z,40.68
2022-07-29T14:07:23.140Z,39.16
2022-07-29T14:09:51.180Z,39.30
2022-07-29T14:12:18.679Z,39.19
2022-07-29T14:14:47.331Z,39.36
2022-07-29T14:17:15.289Z,40.53
2022-07-29T14:19:43.266Z,39.65
2022-07-29T14:22:11.177Z,40.82
2022-07-29T14:24:39.638Z,40.64
2022-07-29T14:27:08.785Z,40.14
2022-07-29T14:29:38.105Z,42.19
2022-07-29T14:32:08.102Z,39.64
2022-07-29T14:34:36.570Z,41.21
2022-07-29T14:37:06.595Z,40.94
2022-07-29T14:39:42.635Z,40.41
2022-07-29T14:42:12.604Z,40.78
2022-07-29T14:44:42.512Z,41.16
2022-07-29T14:47:10.407Z,42.04
2022-07-29T14:49:37.685Z,42.25
2022-07-29T14:52:05.426Z,40.99
2022-07-29T14:54:32.618Z,40.49
2022-07-29T14:56:59.922Z,39.85
2022-07-29T14:59:27.598Z,39.75
2022-07-29T15:01:55.066Z,39.65
2022-07-29T15:04:22.689Z,40.69
2022-07-29T15:06:50.034Z,41.45
2022-07-29T15:09:17.118Z,39.55
2022-07-29T15:11:44.212Z,40.03
2022-07-29T15:14:11.399Z,41.18
2022-07-29T15:16:39.986Z,40.99
2022-07-29T15:19:11.685Z,42.59
2022-07-29T15:21:41.682Z,41.79
2022-07-29T15:24:15.846Z,40.13
2022-07-29T15:26:43.622Z,40.63
2022-07-29T15:29:29.320Z,42.41
2022-07-29T15:31:56.734Z,41.23
2022-07-29T15:34:26.727Z,40.48
2022-07-29T15:36:54.181Z,39.36
2022-07-29T15:39:22.120Z,40.58
2022-07-29T15:41:50.504Z,42.82
2022-07-29T15:44:18.382Z,42.01
2022-07-29T15:47:04.225Z,43.03
2022-07-29T15:49:47.945Z,43.02
2022-07-29T15:52:25.720Z,42.12
2022-07-29T15:54:55.663Z,43.24
2022-07-29T15:57:23.468Z,43.74
2022-07-29T15:59:50.805Z,44.12
2022-07-29T16:02:18.112Z,41.89
2022-07-29T16:04:45.208Z,40.89
2022-07-29T16:07:12.716Z,38.69
2022-07-29T16:09:42.168Z,37.55
2022-07-29T16:12:14.629Z,35.47
2022-07-29T16:14:46.073Z,36.36
2022-07-29T16:17:14.746Z,38.27
2022-07-29T16:19:48.899Z,41.43
2022-07-29T16:22:16.635Z,43.34
2022-07-29T16:24:43.835Z,45.19
2022-07-29T16:27:11.061Z,46.28
2022-07-29T16:29:38.329Z,47.03
2022-07-29T16:32:08.279Z,47.53
2022-07-29T16:34:35.426Z,48.92
2022-07-29T16:37:03.026Z,49.71
2022-07-29T16:39:30.530Z,49.87
2022-07-29T16:42:00.806Z,49.61
2022-07-29T16:44:29.489Z,49.99
2022-07-29T16:47:01.026Z,50.24
2022-07-29T16:49:29.242Z,50.38
2022-07-29T16:51:56.338Z,50.54
2022-07-29T16:54:23.805Z,50.40
2022-07-29T16:56:51.047Z,50.85
2022-07-29T16:59:18.327Z,50.86
2022-07-29T17:01:46.412Z,50.15
2022-07-29T17:04:15.087Z,50.26
2022-07-29T17:06:42.698Z,50.43
2022-07-29T17:09:17.048Z,51.33
2022-07-29T17:11:53.448Z,49.84
2022-07-29T17:14:28.257Z,50.28
2022-07-29T17:17:02.298Z,50.44
2022-07-29T17:19:39.290Z,50.59
2022-07-29T17:22:13.051Z,51.40
2022-07-29T17:24:43.348Z,51.00
2022-07-29T17:27:10.552Z,51.64
2022-07-29T17:29:39.989Z,51.29
2022-07-29T17:32:09.188Z,51.34
2022-07-29T17:34:39.293Z,50.88
2022-07-29T17:37:11.511Z,51.12
2022-07-29T17:39:41.282Z,51.45
2022-07-29T17:42:10.283Z,52.45
2022-07-29T17:44:38.319Z,50.67
2022-07-29T17:47:08.027Z,51.35
2022-07-29T17:49:45.078Z,51.13
2022-07-29T17:52:12.190Z,51.24
2022-07-29T17:54:39.386Z,51.08
2022-07-29T17:57:06.596Z,51.45
2022-07-29T17:59:33.734Z,51.37
2022-07-29T18:02:00.904Z,51.52
2022-07-29T18:04:28.743Z,51.96
2022-07-29T18:06:56.257Z,52.08
2022-07-29T18:09:26.374Z,50.95
2022-07-29T18:11:53.465Z,52.08
2022-07-29T18:14:20.639Z,52.96
2022-07-29T18:16:47.781Z,52.79
2022-07-29T18:19:17.776Z,52.83
2022-07-29T18:21:54.454Z,52.38
2022-07-29T18:24:27.522Z,52.05
2022-07-29T18:26:54.735Z,51.66
2022-07-29T18:29:22.119Z,51.01
2022-07-29T18:31:51.967Z,51.11
2022-07-29T18:34:25.210Z,50.16
2022-07-29T18:36:52.273Z,48.76
2022-07-29T18:39:20.855Z,48.21
2022-07-29T18:41:52.111Z,48.67
2022-07-29T18:44:22.486Z,48.10
2022-07-29T18:46:51.603Z,48.38
2022-07-29T18:49:19.525Z,47.78
2022-07-29T18:51:46.746Z,48.12
2022-07-29T18:54:14.066Z,48.34
2022-07-29T18:56:41.280Z,48.72
2022-07-29T18:59:08.673Z,48.93
2022-07-29T19:01:36.926Z,49.12
2022-07-29T19:04:05.130Z,49.10
2022-07-29T19:06:32.311Z,49.48
2022-07-29T19:09:00.243Z,49.51
2022-07-29T19:11:27.401Z,49.78
2022-07-29T19:13:54.481Z,49.92
2022-07-29T19:16:21.588Z,50.71
2022-07-29T19:18:48.741Z,51.15
2022-07-29T19:21:15.914Z,51.68
2022-07-29T19:24:01.861Z,51.64
2022-07-29T19:26:31.749Z,52.32
2022-07-29T19:28:59.150Z,51.92
2022-07-29T19:31:26.405Z,52.58
2022-07-29T19:33:53.622Z,52.75
2022-07-29T19:36:20.752Z,53.97
2022-07-29T19:38:47.853Z,54.36
2022-07-29T19:41:17.097Z,54.63
2022-07-29T19:43:49.998Z,54.71
2022-07-29T19:46:24.168Z,54.92
2022-07-29T19:48:53.133Z,55.12
2022-07-29T19:51:20.405Z,55.59
2022-07-29T19:53:47.470Z,55.33
2022-07-29T19:56:14.592Z,56.11
2022-07-29T19:58:42.339Z,55.94
2022-07-29T20:01:11.590Z,56.20
2022-07-29T20:03:40.205Z,56.32
2022-07-29T20:06:09.042Z,55.45
2022-07-29T20:08:36.457Z,55.44
2022-07-29T20:11:03.751Z,55.84
2022-07-29T20:13:36.371Z,55.99
2022-07-29T20:16:05.703Z,56.25
2022-07-29T20:18:33.027Z,55.54
2022-07-29T20:21:01.441Z,55.54
2022-07-29T20:23:28.631Z,55.04
2022-07-29T20:26:01.129Z,55.71
2022-07-29T20:28:28.406Z,56.13
2022-07-29T20:30:55.583Z,56.08
2022-07-29T20:33:22.661Z,56.24
2022-07-29T20:35:49.731Z,56.30
2022-07-29T20:38:18.461Z,56.91
2022-07-29T20:40:46.201Z,56.82
2022-07-29T20:43:13.293Z,56.90
2022-07-29T20:45:40.415Z,57.16
2022-07-29T20:48:08.418Z,57.75
2022-07-29T20:50:36.011Z,57.76
2022-07-29T20:53:03.477Z,58.53
2022-07-29T20:55:32.090Z,58.53
2022-07-29T20:57:59.325Z,58.60
2022-07-29T21:00:26.535Z,59.28
2022-07-29T21:02:55.074Z,59.66
2022-07-29T21:05:22.441Z,59.19
2022-07-29T21:07:49.565Z,59.08
2022-07-29T21:10:18.405Z,59.67
2022-07-29T21:12:47.010Z,58.87
2022-07-29T21:15:20.475Z,59.22
2022-07-29T21:17:51.022Z,59.21
2022-07-29T21:20:19.473Z,58.96
2022-07-29T21:22:46.567Z,58.79
2022-07-29T21:25:13.706Z,58.72
2022-07-29T21:27:59.389Z,57.81
2022-07-29T21:30:26.476Z,57.75
2022-07-29T21:32:53.654Z,57.70
2022-07-29T21:35:45.267Z,57.92
2022-07-29T21:38:07.843Z,57.76
2022-07-29T21:40:34.925Z,57.89
2022-07-29T21:43:01.967Z,57.73
2022-07-29T21:45:29.044Z,57.54
2022-07-29T21:47:56.210Z,57.89
2022-07-29T21:50:23.251Z,57.94
2022-07-29T21:52:50.387Z,58.15
2022-07-29T21:55:19.269Z,58.73
2022-07-29T21:57:46.537Z,57.91
2022-07-29T22:00:17.101Z,58.15
2022-07-29T22:02:44.403Z,58.25
2022-07-29T22:05:14.651Z,58.43
2022-07-29T22:07:55.907Z,58.07
2022-07-29T22:10:28.859Z,58.69
2022-07-29T22:12:57.975Z,58.10
2022-07-29T22:15:25.677Z,58.36
2022-07-29T22:17:53.222Z,58.95
2022-07-29T22:20:20.602Z,58.79
2022-07-29T22:22:48.271Z,58.69
2022-07-29T22:25:15.711Z,58.58
2022-07-29T22:27:42.833Z,58.66
2022-07-29T22:30:10.445Z,58.69
2022-07-29T22:32:37.564Z,58.97
2022-07-29T22:35:05.266Z,58.45
2022-07-29T22:37:32.601Z,59.03
2022-07-29T22:39:59.773Z,59.28
2022-07-29T22:42:26.836Z,58.90
2022-07-29T22:44:54.773Z,59.24
2022-07-29T22:47:38.986Z,59.79
2022-07-29T22:50:09.120Z,59.73
2022-07-29T22:52:36.522Z,59.60
2022-07-29T22:55:04.962Z,60.19
2022-07-29T22:57:32.085Z,60.13
2022-07-29T23:00:01.778Z,60.09
2022-07-29T23:02:31.418Z,59.52
2022-07-29T23:04:58.554Z,60.14
2022-07-29T23:07:25.652Z,59.01
2022-07-29T23:09:52.775Z,58.94
2022-07-29T23:12:19.873Z,58.92
2022-07-29T23:14:46.991Z,59.29
2022-07-29T23:17:16.515Z,58.71
2022-07-29T23:19:43.545Z,58.43
2022-07-29T23:22:11.966Z,58.39
2022-07-29T23:24:39.278Z,57.78
2022-07-29T23:27:08.237Z,57.61
2022-07-29T23:29:36.860Z,57.76
2022-07-29T23:32:04.403Z,57.96
2022-07-29T23:34:31.481Z,57.03
2022-07-29T23:36:58.991Z,57.03
2022-07-29T23:39:29.392Z,57.05
2022-07-29T23:41:56.490Z,56.95
2022-07-29T23:44:23.527Z,56.96
2022-07-29T23:46:50.665Z,56.68
2022-07-29T23:49:17.802Z,56.77
2022-07-29T23:51:44.953Z,56.63
2022-07-29T23:54:12.065Z,55.92
2022-07-29T23:56:39.145Z,56.29
2022-07-29T23:59:06.229Z,56.59
